createdAt,value
2019-04-21T00:00:54.224Z,5.93
2019-04-21T00:06:20.052Z,7.90
2019-04-21T00:11:32.766Z,5.93
2019-04-21T00:16:19.218Z,4.87
2019-04-21T00:21:30.216Z,6.77
2019-04-21T00:26:49.360Z,5.07
2019-04-21T00:31:56.040Z,5.70
2019-04-21T00:36:57.294Z,6.03
2019-04-21T00:42:14.085Z,4.63
2019-04-21T00:47:26.753Z,4.20
2019-04-21T00:52:58.155Z,6.47
2019-04-21T00:57:57.430Z,4.80
2019-04-21T01:03:06.469Z,6.60
2019-04-21T01:08:09.748Z,5.87
2019-04-21T01:13:20.404Z,9.70
2019-04-21T01:18:20.738Z,7.40
2019-04-21T01:23:08.891Z,6.93
2019-04-21T01:28:29.030Z,7.00
2019-04-21T01:33:47.213Z,5.47
2019-04-21T01:38:55.046Z,6.90
2019-04-21T01:43:56.491Z,7.37
2019-04-21T01:48:57.053Z,5.77
2019-04-21T01:54:23.776Z,6.33
2019-04-21T01:59:41.608Z,6.67
2019-04-21T02:04:57.312Z,6.37
2019-04-21T02:10:05.045Z,4.17
2019-04-21T02:15:17.174Z,5.83
2019-04-21T02:20:12.181Z,6.17
2019-04-21T02:25:29.801Z,7.87
2019-04-21T02:30:52.166Z,6.50
2019-04-21T02:46:12.556Z,8.50
2019-04-21T02:51:25.028Z,8.70
2019-04-21T02:56:26.412Z,5.17
2019-04-21T03:07:17.765Z,5.90
2019-04-21T03:12:31.605Z,6.20
2019-04-21T03:17:42.563Z,7.97
2019-04-21T03:22:53.884Z,9.57
2019-04-21T03:38:17.121Z,7.93
2019-04-21T03:43:21.362Z,9.80
2019-04-21T03:48:26.770Z,5.77
2019-04-21T03:53:31.429Z,6.57
2019-04-21T03:58:54.631Z,9.83
2019-04-21T04:09:21.368Z,9.53
2019-04-21T04:14:26.772Z,6.57
2019-04-21T04:19:32.858Z,8.50
2019-04-21T04:24:44.752Z,10.20
2019-04-21T04:29:52.968Z,7.57
2019-04-21T04:35:01.547Z,8.23
2019-04-21T04:40:27.727Z,7.60
2019-04-21T04:45:32.442Z,6.07
2019-04-21T04:50:45.510Z,6.80
2019-04-21T05:00:53.743Z,8.90
2019-04-21T05:21:45.586Z,10.47
2019-04-21T05:26:46.097Z,5.00
2019-04-21T05:32:19.774Z,4.57
2019-04-21T05:37:43.680Z,5.70
2019-04-21T05:42:52.929Z,6.33
2019-04-21T05:48:17.860Z,5.67
2019-04-21T05:53:26.829Z,7.97
2019-04-21T05:58:28.470Z,9.63
2019-04-21T06:03:36.902Z,6.17
2019-04-21T06:13:55.063Z,5.67
2019-04-21T06:18:58.715Z,6.50
2019-04-21T06:24:09.268Z,6.93
2019-04-21T06:29:20.019Z,4.77
2019-04-21T06:34:24.762Z,6.07
2019-04-21T06:39:44.931Z,10.27
2019-04-21T06:44:49.146Z,8.60
2019-04-21T06:49:44.353Z,7.10
2019-04-21T06:54:54.880Z,7.90
2019-04-21T07:00:03.513Z,7.60
2019-04-21T07:05:15.495Z,7.63
2019-04-21T07:10:21.009Z,7.07
2019-04-21T07:15:34.498Z,8.87
2019-04-21T07:20:38.047Z,8.10
2019-04-21T07:25:48.295Z,9.80
2019-04-21T07:30:57.539Z,11.93
2019-04-21T07:35:59.648Z,16.03
2019-04-21T07:40:59.541Z,10.27
2019-04-21T07:46:06.456Z,8.47
2019-04-21T07:51:42.304Z,11.43
2019-04-21T07:56:33.198Z,9.90
2019-04-21T08:01:55.165Z,16.27
2019-04-21T08:06:55.453Z,12.77
2019-04-21T08:12:06.659Z,13.70
2019-04-21T08:17:16.395Z,13.43
2019-04-21T08:22:29.160Z,9.47
2019-04-21T08:27:35.171Z,14.13
2019-04-21T08:37:46.074Z,8.63
2019-04-21T08:48:04.315Z,14.07
2019-04-21T08:53:07.916Z,13.63
2019-04-21T09:03:49.520Z,11.30
2019-04-21T09:14:01.561Z,10.50
2019-04-21T09:19:04.743Z,12.27
2019-04-21T09:24:18.905Z,12.87
2019-04-21T09:29:18.089Z,11.23
2019-04-21T09:34:22.513Z,15.07
2019-04-21T09:39:26.276Z,20.20
2019-04-21T09:44:36.073Z,16.33
2019-04-21T09:49:40.080Z,33.47
2019-04-21T09:54:55.191Z,37.77
2019-04-21T10:00:02.138Z,36.97
2019-04-21T10:05:01.938Z,30.70
2019-04-21T10:10:10.554Z,29.27
2019-04-21T10:15:16.650Z,15.23
2019-04-21T10:20:24.389Z,10.27
2019-04-21T10:25:32.978Z,14.90
2019-04-21T10:30:38.888Z,21.23
2019-04-21T10:35:45.199Z,38.70
2019-04-21T10:40:51.733Z,13.80
2019-04-21T10:45:58.933Z,11.10
2019-04-21T10:51:05.369Z,8.80
2019-04-21T10:56:19.920Z,9.83
2019-04-21T11:01:21.123Z,7.13
2019-04-21T11:06:28.752Z,9.60
2019-04-21T11:11:34.795Z,9.40
2019-04-21T11:16:41.639Z,10.07
2019-04-21T11:21:49.342Z,6.53
2019-04-21T11:26:55.913Z,9.73
2019-04-21T11:32:03.043Z,9.43
2019-04-21T11:37:10.287Z,7.50
2019-04-21T11:42:21.765Z,7.50
2019-04-21T11:47:32.592Z,9.07
2019-04-21T11:52:38.918Z,7.93
2019-04-21T11:57:49.482Z,8.67
2019-04-21T12:02:53.369Z,10.10
2019-04-21T12:08:00.193Z,7.87
2019-04-21T12:13:07.498Z,8.13
2019-04-21T12:18:13.976Z,8.17
2019-04-21T12:23:22.529Z,6.70
2019-04-21T12:28:30.104Z,8.53
2019-04-21T12:33:56.353Z,8.33
2019-04-21T12:39:05.071Z,13.07
2019-04-21T12:44:10.834Z,12.47
2019-04-21T12:49:17.901Z,26.23
2019-04-21T12:54:23.904Z,32.00
2019-04-21T12:59:32.305Z,28.10
2019-04-21T13:04:37.886Z,11.60
2019-04-21T13:09:44.317Z,22.27
2019-04-21T13:14:51.594Z,10.97
2019-04-21T13:19:58.981Z,12.63
2019-04-21T13:25:05.700Z,17.77
2019-04-21T13:30:14.540Z,8.23
2019-04-21T13:35:21.234Z,7.83
2019-04-21T13:40:57.033Z,15.97
2019-04-21T13:45:53.969Z,9.20
2019-04-21T13:51:01.423Z,7.03
2019-04-21T13:56:08.926Z,6.83
2019-04-21T14:01:15.989Z,9.63
2019-04-21T14:06:22.632Z,7.47
2019-04-21T14:11:29.269Z,7.77
2019-04-21T14:16:36.057Z,7.43
2019-04-21T14:21:43.935Z,11.53
2019-04-21T14:26:50.194Z,8.57
2019-04-21T14:31:56.153Z,10.87
2019-04-21T14:37:02.496Z,9.60
2019-04-21T14:42:08.698Z,8.43
2019-04-21T14:47:20.972Z,8.20
2019-04-21T14:52:30.850Z,9.33
2019-04-21T14:57:36.975Z,13.73
2019-04-21T15:02:43.579Z,11.10
2019-04-21T15:07:50.857Z,11.07
2019-04-21T15:12:57.230Z,9.40
2019-04-21T15:18:04.000Z,11.33
2019-04-21T15:23:10.466Z,18.87
2019-04-21T15:28:17.778Z,17.87
2019-04-21T15:33:24.545Z,11.20
2019-04-21T15:38:31.901Z,17.50
2019-04-21T15:43:38.528Z,52.17
2019-04-21T15:48:44.845Z,47.20
2019-04-21T15:53:51.995Z,42.97
2019-04-21T15:59:12.587Z,37.57
2019-04-21T16:04:18.890Z,36.83
2019-04-21T16:09:26.886Z,33.27
2019-04-21T16:14:32.527Z,45.60
2019-04-21T16:19:41.715Z,42.17
2019-04-21T16:24:47.880Z,35.40
2019-04-21T16:29:54.049Z,35.47
2019-04-21T16:35:05.330Z,20.40
2019-04-21T16:40:09.515Z,22.57
2019-04-21T16:45:17.214Z,13.57
2019-04-21T16:50:24.024Z,12.57
2019-04-21T16:55:35.238Z,16.00
2019-04-21T17:00:46.614Z,12.33
2019-04-21T17:05:50.127Z,14.43
2019-04-21T17:11:06.401Z,11.97
2019-04-21T17:16:31.939Z,12.17
2019-04-21T17:21:13.167Z,16.57
2019-04-21T17:26:19.481Z,14.37
2019-04-21T17:31:26.662Z,15.33
2019-04-21T17:36:37.359Z,16.90
2019-04-21T17:42:04.060Z,15.40
2019-04-21T17:46:57.765Z,19.47
2019-04-21T17:52:16.896Z,15.30
2019-04-21T17:57:45.520Z,15.87
2019-04-21T18:02:47.921Z,16.37
2019-04-21T18:07:54.394Z,13.47
2019-04-21T18:12:57.325Z,11.27
2019-04-21T18:17:56.591Z,18.83
2019-04-21T18:23:45.040Z,23.30
2019-04-21T18:28:41.680Z,20.03
2019-04-21T18:34:11.054Z,15.80
2019-04-21T18:39:46.378Z,14.60
2019-04-21T18:45:45.830Z,17.03
2019-04-21T18:50:46.302Z,14.73
2019-04-21T18:55:47.887Z,18.10
2019-04-21T19:01:02.541Z,16.97
2019-04-21T19:06:08.077Z,23.27
2019-04-21T19:11:29.655Z,16.47
2019-04-21T19:21:45.278Z,13.37
2019-04-21T19:27:08.019Z,16.90
2019-04-21T19:31:54.956Z,23.73
2019-04-21T19:36:51.979Z,24.33
2019-04-21T19:42:03.137Z,14.47
2019-04-21T19:47:25.904Z,16.80
2019-04-21T19:52:26.532Z,17.57
2019-04-21T19:57:20.842Z,16.17
2019-04-21T20:02:26.912Z,18.97
2019-04-21T20:07:52.187Z,18.70
2019-04-21T20:13:02.910Z,13.37
2019-04-21T20:18:01.923Z,19.17
2019-04-21T20:22:57.374Z,15.40
2019-04-21T20:28:14.675Z,17.77
2019-04-21T20:38:32.704Z,16.17
2019-04-21T20:43:48.451Z,17.70
2019-04-21T20:48:52.382Z,15.37
2019-04-21T20:54:02.908Z,15.27
2019-04-21T20:59:12.081Z,15.70
2019-04-21T21:04:17.557Z,16.50
2019-04-21T21:09:23.097Z,19.80
2019-04-21T21:14:36.335Z,15.13
2019-04-21T21:19:53.645Z,12.80
2019-04-21T21:24:56.831Z,13.87
2019-04-21T21:29:58.319Z,14.20
2019-04-21T21:35:14.177Z,15.03
2019-04-21T21:40:26.035Z,13.53
2019-04-21T21:45:17.248Z,17.63
2019-04-21T21:50:25.669Z,17.10
2019-04-21T21:55:26.000Z,14.17
2019-04-21T22:00:36.953Z,13.37
2019-04-21T22:05:46.131Z,10.17
2019-04-21T22:10:49.442Z,13.10
2019-04-21T22:16:02.887Z,18.40
2019-04-21T22:21:13.882Z,17.70
2019-04-21T22:26:11.547Z,10.80
2019-04-21T22:31:22.642Z,11.37
2019-04-21T22:36:35.442Z,13.40
2019-04-21T22:41:38.100Z,13.20
2019-04-21T22:46:52.092Z,18.30
2019-04-21T22:51:49.684Z,13.23
2019-04-21T22:57:04.185Z,14.50
2019-04-21T23:02:01.390Z,14.13
2019-04-21T23:07:13.535Z,10.60
2019-04-21T23:12:22.404Z,12.87
2019-04-21T23:17:42.221Z,10.93
2019-04-21T23:22:58.543Z,11.30
2019-04-21T23:27:58.458Z,9.50
2019-04-21T23:32:53.583Z,13.80
2019-04-21T23:37:58.682Z,13.83
2019-04-21T23:43:09.661Z,9.50
2019-04-21T23:48:23.801Z,10.20
2019-04-21T23:53:17.360Z,10.67
2019-04-21T23:58:26.430Z,11.40
